sensor_id;sensor_type;location;lat;lon;timestamp;P1;durP1;ratioP1;P2;durP2;ratioP2
53879;SDS011;39791;53.184;5.486;2022-12-07T00:01:31;15.52;;;2.78;;
53879;SDS011;39791;53.184;5.486;2022-12-07T00:03:59;19.20;;;1.98;;
53879;SDS011;39791;53.184;5.486;2022-12-07T00:06:30;12.80;;;1.98;;
53879;SDS011;39791;53.184;5.486;2022-12-07T00:09:00;16.52;;;2.78;;
53879;SDS011;39791;53.184;5.486;2022-12-07T00:11:26;15.82;;;3.13;;
53879;SDS011;39791;53.184;5.486;2022-12-07T00:13:52;12.90;;;2.78;;
53879;SDS011;39791;53.184;5.486;2022-12-07T00:16:20;18.55;;;2.45;;
53879;SDS011;39791;53.184;5.486;2022-12-07T00:18:47;18.88;;;3.50;;
53879;SDS011;39791;53.184;5.486;2022-12-07T00:21:13;14.55;;;3.10;;
53879;SDS011;39791;53.184;5.486;2022-12-07T00:23:40;13.35;;;2.67;;
53879;SDS011;39791;53.184;5.486;2022-12-07T00:26:08;14.45;;;2.85;;
53879;SDS011;39791;53.184;5.486;2022-12-07T00:28:35;16.58;;;2.65;;
53879;SDS011;39791;53.184;5.486;2022-12-07T00:31:06;13.75;;;2.80;;
53879;SDS011;39791;53.184;5.486;2022-12-07T00:33:33;18.58;;;3.15;;
53879;SDS011;39791;53.184;5.486;2022-12-07T00:36:00;22.23;;;3.42;;
53879;SDS011;39791;53.184;5.486;2022-12-07T00:38:28;17.10;;;2.97;;
53879;SDS011;39791;53.184;5.486;2022-12-07T00:40:59;13.52;;;3.00;;
53879;SDS011;39791;53.184;5.486;2022-12-07T00:43:32;20.02;;;2.88;;
53879;SDS011;39791;53.184;5.486;2022-12-07T00:45:58;19.45;;;3.17;;
53879;SDS011;39791;53.184;5.486;2022-12-07T00:48:23;21.48;;;3.03;;
53879;SDS011;39791;53.184;5.486;2022-12-07T00:50:49;20.60;;;3.38;;
53879;SDS011;39791;53.184;5.486;2022-12-07T00:53:15;17.83;;;3.03;;
53879;SDS011;39791;53.184;5.486;2022-12-07T00:55:42;13.82;;;2.42;;
53879;SDS011;39791;53.184;5.486;2022-12-07T00:58:07;19.15;;;2.58;;
53879;SDS011;39791;53.184;5.486;2022-12-07T01:00:35;18.48;;;2.88;;
53879;SDS011;39791;53.184;5.486;2022-12-07T01:03:01;21.33;;;2.80;;
53879;SDS011;39791;53.184;5.486;2022-12-07T01:05:27;17.42;;;2.47;;
53879;SDS011;39791;53.184;5.486;2022-12-07T01:07:52;23.17;;;3.03;;
53879;SDS011;39791;53.184;5.486;2022-12-07T01:10:18;17.17;;;2.53;;
53879;SDS011;39791;53.184;5.486;2022-12-07T01:12:44;20.15;;;3.58;;
53879;SDS011;39791;53.184;5.486;2022-12-07T01:15:10;16.38;;;2.90;;
53879;SDS011;39791;53.184;5.486;2022-12-07T01:17:36;12.73;;;2.88;;
53879;SDS011;39791;53.184;5.486;2022-12-07T01:20:02;15.75;;;2.67;;
53879;SDS011;39791;53.184;5.486;2022-12-07T01:22:28;15.50;;;2.58;;
53879;SDS011;39791;53.184;5.486;2022-12-07T01:24:54;14.77;;;2.40;;
53879;SDS011;39791;53.184;5.486;2022-12-07T01:27:19;15.82;;;2.83;;
53879;SDS011;39791;53.184;5.486;2022-12-07T01:29:45;13.50;;;2.80;;
53879;SDS011;39791;53.184;5.486;2022-12-07T01:32:10;12.20;;;2.25;;
53879;SDS011;39791;53.184;5.486;2022-12-07T01:34:36;11.90;;;2.08;;
53879;SDS011;39791;53.184;5.486;2022-12-07T01:37:02;13.05;;;2.20;;
53879;SDS011;39791;53.184;5.486;2022-12-07T01:39:27;9.45;;;1.98;;
53879;SDS011;39791;53.184;5.486;2022-12-07T01:41:53;13.38;;;2.35;;
53879;SDS011;39791;53.184;5.486;2022-12-07T01:44:22;7.05;;;1.58;;
53879;SDS011;39791;53.184;5.486;2022-12-07T01:49:33;7.55;;;1.90;;
53879;SDS011;39791;53.184;5.486;2022-12-07T01:52:10;9.73;;;2.00;;
53879;SDS011;39791;53.184;5.486;2022-12-07T01:54:38;8.65;;;1.80;;
53879;SDS011;39791;53.184;5.486;2022-12-07T01:57:04;13.23;;;2.50;;
53879;SDS011;39791;53.184;5.486;2022-12-07T01:59:33;8.82;;;2.00;;
53879;SDS011;39791;53.184;5.486;2022-12-07T02:01:58;12.50;;;2.50;;
53879;SDS011;39791;53.184;5.486;2022-12-07T02:04:26;16.60;;;2.88;;
53879;SDS011;39791;53.184;5.486;2022-12-07T02:06:53;12.63;;;2.08;;
53879;SDS011;39791;53.184;5.486;2022-12-07T02:09:20;16.30;;;2.78;;
53879;SDS011;39791;53.184;5.486;2022-12-07T02:11:46;13.35;;;2.50;;
53879;SDS011;39791;53.184;5.486;2022-12-07T02:14:11;13.43;;;2.45;;
53879;SDS011;39791;53.184;5.486;2022-12-07T02:19:30;14.02;;;2.42;;
53879;SDS011;39791;53.184;5.486;2022-12-07T02:25:18;20.13;;;3.38;;
53879;SDS011;39791;53.184;5.486;2022-12-07T02:30:30;6.68;;;1.88;;
53879;SDS011;39791;53.184;5.486;2022-12-07T02:33:00;12.60;;;1.92;;
53879;SDS011;39791;53.184;5.486;2022-12-07T02:35:46;8.55;;;2.00;;
53879;SDS011;39791;53.184;5.486;2022-12-07T02:38:31;16.05;;;2.15;;
53879;SDS011;39791;53.184;5.486;2022-12-07T02:41:06;16.42;;;2.20;;
53879;SDS011;39791;53.184;5.486;2022-12-07T02:43:40;13.18;;;2.05;;
53879;SDS011;39791;53.184;5.486;2022-12-07T02:46:11;17.20;;;3.08;;
53879;SDS011;39791;53.184;5.486;2022-12-07T02:48:48;21.63;;;2.60;;
53879;SDS011;39791;53.184;5.486;2022-12-07T02:51:17;18.33;;;2.58;;
53879;SDS011;39791;53.184;5.486;2022-12-07T02:53:43;13.75;;;2.78;;
53879;SDS011;39791;53.184;5.486;2022-12-07T02:56:22;11.18;;;2.15;;
53879;SDS011;39791;53.184;5.486;2022-12-07T03:04:26;19.48;;;2.20;;
53879;SDS011;39791;53.184;5.486;2022-12-07T03:07:11;13.20;;;2.83;;
53879;SDS011;39791;53.184;5.486;2022-12-07T03:15:40;11.15;;;2.00;;
53879;SDS011;39791;53.184;5.486;2022-12-07T03:18:15;14.40;;;2.88;;
53879;SDS011;39791;53.184;5.486;2022-12-07T03:20:45;15.02;;;2.20;;
53879;SDS011;39791;53.184;5.486;2022-12-07T03:23:13;19.67;;;2.53;;
53879;SDS011;39791;53.184;5.486;2022-12-07T03:25:42;16.33;;;2.55;;
53879;SDS011;39791;53.184;5.486;2022-12-07T03:28:13;17.52;;;2.42;;
53879;SDS011;39791;53.184;5.486;2022-12-07T03:30:47;18.83;;;2.67;;
53879;SDS011;39791;53.184;5.486;2022-12-07T03:33:21;9.25;;;1.75;;
53879;SDS011;39791;53.184;5.486;2022-12-07T03:35:52;14.10;;;2.67;;
53879;SDS011;39791;53.184;5.486;2022-12-07T03:38:33;21.17;;;2.45;;
53879;SDS011;39791;53.184;5.486;2022-12-07T03:41:31;18.77;;;2.30;;
53879;SDS011;39791;53.184;5.486;2022-12-07T03:43:59;20.17;;;2.83;;
53879;SDS011;39791;53.184;5.486;2022-12-07T03:47:11;20.67;;;2.90;;
53879;SDS011;39791;53.184;5.486;2022-12-07T03:52:19;15.20;;;2.83;;
53879;SDS011;39791;53.184;5.486;2022-12-07T03:57:26;17.83;;;2.72;;
53879;SDS011;39791;53.184;5.486;2022-12-07T03:59:55;15.90;;;2.75;;
53879;SDS011;39791;53.184;5.486;2022-12-07T04:02:21;19.75;;;2.85;;
53879;SDS011;39791;53.184;5.486;2022-12-07T04:04:48;20.30;;;2.63;;
53879;SDS011;39791;53.184;5.486;2022-12-07T04:07:14;18.92;;;2.83;;
53879;SDS011;39791;53.184;5.486;2022-12-07T04:09:40;20.48;;;2.45;;
53879;SDS011;39791;53.184;5.486;2022-12-07T04:12:05;19.10;;;3.22;;
53879;SDS011;39791;53.184;5.486;2022-12-07T04:14:31;12.55;;;2.70;;
53879;SDS011;39791;53.184;5.486;2022-12-07T04:16:58;14.88;;;2.63;;
53879;SDS011;39791;53.184;5.486;2022-12-07T04:19:25;11.50;;;2.20;;
53879;SDS011;39791;53.184;5.486;2022-12-07T04:21:52;14.20;;;2.13;;
53879;SDS011;39791;53.184;5.486;2022-12-07T04:24:18;8.82;;;2.22;;
53879;SDS011;39791;53.184;5.486;2022-12-07T04:26:44;11.23;;;2.35;;
53879;SDS011;39791;53.184;5.486;2022-12-07T04:29:10;16.13;;;1.92;;
53879;SDS011;39791;53.184;5.486;2022-12-07T04:31:36;8.43;;;1.80;;
53879;SDS011;39791;53.184;5.486;2022-12-07T04:34:02;6.88;;;2.17;;
53879;SDS011;39791;53.184;5.486;2022-12-07T04:36:29;10.35;;;2.10;;
53879;SDS011;39791;53.184;5.486;2022-12-07T04:38:54;6.47;;;1.38;;
53879;SDS011;39791;53.184;5.486;2022-12-07T04:41:21;5.78;;;1.52;;
53879;SDS011;39791;53.184;5.486;2022-12-07T04:44:00;5.47;;;1.40;;
53879;SDS011;39791;53.184;5.486;2022-12-07T04:46:29;6.88;;;1.60;;
53879;SDS011;39791;53.184;5.486;2022-12-07T04:48:55;10.05;;;2.00;;
53879;SDS011;39791;53.184;5.486;2022-12-07T04:51:23;21.80;;;3.17;;
53879;SDS011;39791;53.184;5.486;2022-12-07T04:53:53;15.20;;;2.67;;
53879;SDS011;39791;53.184;5.486;2022-12-07T04:56:19;17.33;;;2.63;;
53879;SDS011;39791;53.184;5.486;2022-12-07T04:58:45;20.52;;;2.95;;
53879;SDS011;39791;53.184;5.486;2022-12-07T05:01:12;15.65;;;2.55;;
53879;SDS011;39791;53.184;5.486;2022-12-07T05:03:39;10.25;;;2.13;;
53879;SDS011;39791;53.184;5.486;2022-12-07T05:06:05;17.05;;;2.80;;
53879;SDS011;39791;53.184;5.486;2022-12-07T05:08:31;19.27;;;3.15;;
53879;SDS011;39791;53.184;5.486;2022-12-07T05:10:58;19.52;;;3.22;;
53879;SDS011;39791;53.184;5.486;2022-12-07T05:13:24;24.83;;;3.20;;
53879;SDS011;39791;53.184;5.486;2022-12-07T05:15:49;17.35;;;2.90;;
53879;SDS011;39791;53.184;5.486;2022-12-07T05:18:15;26.08;;;3.13;;
53879;SDS011;39791;53.184;5.486;2022-12-07T05:20:41;21.95;;;3.03;;
53879;SDS011;39791;53.184;5.486;2022-12-07T05:23:07;15.20;;;2.35;;
53879;SDS011;39791;53.184;5.486;2022-12-07T05:25:32;21.48;;;3.10;;
53879;SDS011;39791;53.184;5.486;2022-12-07T05:27:58;15.77;;;2.97;;
53879;SDS011;39791;53.184;5.486;2022-12-07T05:30:24;15.38;;;2.85;;
53879;SDS011;39791;53.184;5.486;2022-12-07T05:32:50;13.48;;;2.45;;
53879;SDS011;39791;53.184;5.486;2022-12-07T05:35:16;14.15;;;2.53;;
53879;SDS011;39791;53.184;5.486;2022-12-07T05:37:42;15.75;;;2.88;;
53879;SDS011;39791;53.184;5.486;2022-12-07T05:40:08;12.98;;;2.35;;
53879;SDS011;39791;53.184;5.486;2022-12-07T05:42:34;12.13;;;2.75;;
53879;SDS011;39791;53.184;5.486;2022-12-07T05:45:00;11.88;;;2.95;;
53879;SDS011;39791;53.184;5.486;2022-12-07T05:47:26;15.93;;;3.10;;
53879;SDS011;39791;53.184;5.486;2022-12-07T05:49:51;16.80;;;2.72;;
53879;SDS011;39791;53.184;5.486;2022-12-07T05:52:17;19.10;;;2.95;;
53879;SDS011;39791;53.184;5.486;2022-12-07T05:54:42;10.50;;;2.15;;
53879;SDS011;39791;53.184;5.486;2022-12-07T05:57:08;7.22;;;1.65;;
53879;SDS011;39791;53.184;5.486;2022-12-07T05:59:34;7.50;;;1.40;;
53879;SDS011;39791;53.184;5.486;2022-12-07T06:02:00;8.57;;;2.15;;
53879;SDS011;39791;53.184;5.486;2022-12-07T06:04:33;14.35;;;2.85;;
53879;SDS011;39791;53.184;5.486;2022-12-07T06:07:03;10.00;;;1.92;;
53879;SDS011;39791;53.184;5.486;2022-12-07T06:09:30;11.93;;;2.08;;
53879;SDS011;39791;53.184;5.486;2022-12-07T06:11:55;14.48;;;2.38;;
53879;SDS011;39791;53.184;5.486;2022-12-07T06:14:40;15.75;;;2.20;;
53879;SDS011;39791;53.184;5.486;2022-12-07T06:17:06;11.52;;;2.15;;
53879;SDS011;39791;53.184;5.486;2022-12-07T06:19:32;17.05;;;2.35;;
53879;SDS011;39791;53.184;5.486;2022-12-07T06:21:57;13.55;;;2.38;;
53879;SDS011;39791;53.184;5.486;2022-12-07T06:24:23;12.95;;;2.25;;
53879;SDS011;39791;53.184;5.486;2022-12-07T06:26:49;13.07;;;2.55;;
53879;SDS011;39791;53.184;5.486;2022-12-07T06:29:15;14.05;;;2.92;;
53879;SDS011;39791;53.184;5.486;2022-12-07T06:31:42;12.23;;;2.05;;
53879;SDS011;39791;53.184;5.486;2022-12-07T06:34:12;13.40;;;2.40;;
53879;SDS011;39791;53.184;5.486;2022-12-07T06:36:39;9.73;;;1.98;;
53879;SDS011;39791;53.184;5.486;2022-12-07T06:39:05;19.10;;;2.67;;
53879;SDS011;39791;53.184;5.486;2022-12-07T06:41:31;17.17;;;2.58;;
53879;SDS011;39791;53.184;5.486;2022-12-07T06:43:57;14.15;;;2.30;;
53879;SDS011;39791;53.184;5.486;2022-12-07T06:46:23;14.05;;;2.45;;
53879;SDS011;39791;53.184;5.486;2022-12-07T06:48:49;18.60;;;2.35;;
53879;SDS011;39791;53.184;5.486;2022-12-07T06:51:16;11.25;;;1.90;;
53879;SDS011;39791;53.184;5.486;2022-12-07T06:53:41;10.63;;;2.00;;
53879;SDS011;39791;53.184;5.486;2022-12-07T06:56:07;11.80;;;2.10;;
53879;SDS011;39791;53.184;5.486;2022-12-07T06:58:33;12.68;;;2.65;;
53879;SDS011;39791;53.184;5.486;2022-12-07T07:00:58;20.10;;;3.42;;
53879;SDS011;39791;53.184;5.486;2022-12-07T07:03:24;21.45;;;2.92;;
53879;SDS011;39791;53.184;5.486;2022-12-07T07:05:49;15.00;;;2.97;;
53879;SDS011;39791;53.184;5.486;2022-12-07T07:08:15;10.07;;;2.72;;
53879;SDS011;39791;53.184;5.486;2022-12-07T07:10:41;16.70;;;2.85;;
53879;SDS011;39791;53.184;5.486;2022-12-07T07:13:06;15.63;;;2.58;;
53879;SDS011;39791;53.184;5.486;2022-12-07T07:15:32;11.23;;;2.00;;
53879;SDS011;39791;53.184;5.486;2022-12-07T07:17:58;13.85;;;2.78;;
53879;SDS011;39791;53.184;5.486;2022-12-07T07:20:24;15.68;;;2.35;;
53879;SDS011;39791;53.184;5.486;2022-12-07T07:22:50;12.05;;;2.22;;
53879;SDS011;39791;53.184;5.486;2022-12-07T07:25:18;14.95;;;2.58;;
53879;SDS011;39791;53.184;5.486;2022-12-07T07:27:44;15.20;;;2.85;;
53879;SDS011;39791;53.184;5.486;2022-12-07T07:30:09;17.17;;;2.78;;
53879;SDS011;39791;53.184;5.486;2022-12-07T07:32:35;16.40;;;2.20;;
53879;SDS011;39791;53.184;5.486;2022-12-07T07:35:00;16.23;;;2.72;;
53879;SDS011;39791;53.184;5.486;2022-12-07T07:37:26;11.60;;;3.08;;
53879;SDS011;39791;53.184;5.486;2022-12-07T07:39:51;20.20;;;2.90;;
53879;SDS011;39791;53.184;5.486;2022-12-07T07:42:17;17.30;;;2.95;;
53879;SDS011;39791;53.184;5.486;2022-12-07T07:44:43;12.35;;;2.65;;
53879;SDS011;39791;53.184;5.486;2022-12-07T07:47:08;21.48;;;3.30;;
53879;SDS011;39791;53.184;5.486;2022-12-07T07:49:34;22.30;;;2.88;;
53879;SDS011;39791;53.184;5.486;2022-12-07T07:51:59;16.73;;;3.00;;
53879;SDS011;39791;53.184;5.486;2022-12-07T07:54:25;20.17;;;3.10;;
53879;SDS011;39791;53.184;5.486;2022-12-07T07:56:51;16.58;;;3.20;;
53879;SDS011;39791;53.184;5.486;2022-12-07T07:59:17;17.70;;;3.30;;
53879;SDS011;39791;53.184;5.486;2022-12-07T08:01:43;20.75;;;3.53;;
53879;SDS011;39791;53.184;5.486;2022-12-07T08:04:08;18.90;;;3.10;;
53879;SDS011;39791;53.184;5.486;2022-12-07T08:06:34;13.85;;;2.67;;
53879;SDS011;39791;53.184;5.486;2022-12-07T08:09:00;15.50;;;2.70;;
53879;SDS011;39791;53.184;5.486;2022-12-07T08:11:26;15.88;;;3.00;;
53879;SDS011;39791;53.184;5.486;2022-12-07T08:13:51;19.20;;;2.80;;
53879;SDS011;39791;53.184;5.486;2022-12-07T08:16:17;21.40;;;3.78;;
53879;SDS011;39791;53.184;5.486;2022-12-07T08:18:42;20.08;;;3.33;;
53879;SDS011;39791;53.184;5.486;2022-12-07T08:21:09;16.02;;;3.15;;
53879;SDS011;39791;53.184;5.486;2022-12-07T08:23:37;18.30;;;3.08;;
53879;SDS011;39791;53.184;5.486;2022-12-07T08:26:03;23.45;;;3.40;;
53879;SDS011;39791;53.184;5.486;2022-12-07T08:28:31;22.10;;;2.95;;
53879;SDS011;39791;53.184;5.486;2022-12-07T08:31:00;24.27;;;2.97;;
53879;SDS011;39791;53.184;5.486;2022-12-07T08:33:27;16.17;;;3.53;;
53879;SDS011;39791;53.184;5.486;2022-12-07T08:35:53;15.65;;;3.53;;
53879;SDS011;39791;53.184;5.486;2022-12-07T08:38:19;18.00;;;3.30;;
53879;SDS011;39791;53.184;5.486;2022-12-07T08:40:45;13.57;;;3.30;;
53879;SDS011;39791;53.184;5.486;2022-12-07T08:43:18;24.75;;;3.88;;
53879;SDS011;39791;53.184;5.486;2022-12-07T08:45:43;18.60;;;3.22;;
53879;SDS011;39791;53.184;5.486;2022-12-07T08:48:09;19.33;;;3.05;;
53879;SDS011;39791;53.184;5.486;2022-12-07T08:50:37;15.38;;;2.55;;
53879;SDS011;39791;53.184;5.486;2022-12-07T08:53:03;13.20;;;2.58;;
53879;SDS011;39791;53.184;5.486;2022-12-07T08:55:30;14.95;;;2.30;;
53879;SDS011;39791;53.184;5.486;2022-12-07T08:57:58;12.10;;;2.83;;
53879;SDS011;39791;53.184;5.486;2022-12-07T09:00:24;15.15;;;3.70;;
53879;SDS011;39791;53.184;5.486;2022-12-07T09:02:51;16.00;;;2.70;;
53879;SDS011;39791;53.184;5.486;2022-12-07T09:05:16;12.57;;;2.60;;
53879;SDS011;39791;53.184;5.486;2022-12-07T09:07:43;25.85;;;2.95;;
53879;SDS011;39791;53.184;5.486;2022-12-07T09:10:11;20.20;;;3.92;;
53879;SDS011;39791;53.184;5.486;2022-12-07T09:12:36;13.80;;;2.00;;
53879;SDS011;39791;53.184;5.486;2022-12-07T09:15:02;13.43;;;2.83;;
53879;SDS011;39791;53.184;5.486;2022-12-07T09:17:31;14.05;;;2.20;;
53879;SDS011;39791;53.184;5.486;2022-12-07T09:19:58;11.70;;;2.47;;
53879;SDS011;39791;53.184;5.486;2022-12-07T09:22:23;13.85;;;2.40;;
53879;SDS011;39791;53.184;5.486;2022-12-07T09:24:49;14.43;;;2.72;;
53879;SDS011;39791;53.184;5.486;2022-12-07T09:27:14;15.35;;;2.30;;
53879;SDS011;39791;53.184;5.486;2022-12-07T09:29:42;13.23;;;2.13;;
53879;SDS011;39791;53.184;5.486;2022-12-07T09:32:08;11.00;;;2.25;;
53879;SDS011;39791;53.184;5.486;2022-12-07T09:34:33;16.33;;;3.03;;
53879;SDS011;39791;53.184;5.486;2022-12-07T09:37:00;10.30;;;2.30;;
53879;SDS011;39791;53.184;5.486;2022-12-07T09:39:27;11.68;;;2.25;;
53879;SDS011;39791;53.184;5.486;2022-12-07T09:41:53;13.32;;;2.40;;
53879;SDS011;39791;53.184;5.486;2022-12-07T09:44:23;16.38;;;2.47;;
53879;SDS011;39791;53.184;5.486;2022-12-07T09:46:51;13.88;;;2.80;;
53879;SDS011;39791;53.184;5.486;2022-12-07T09:49:18;4.43;;;1.15;;
53879;SDS011;39791;53.184;5.486;2022-12-07T09:51:46;3.88;;;1.10;;
53879;SDS011;39791;53.184;5.486;2022-12-07T09:54:13;6.50;;;1.50;;
53879;SDS011;39791;53.184;5.486;2022-12-07T09:56:42;5.28;;;1.60;;
53879;SDS011;39791;53.184;5.486;2022-12-07T09:59:17;5.88;;;1.30;;
53879;SDS011;39791;53.184;5.486;2022-12-07T10:01:44;5.05;;;1.35;;
53879;SDS011;39791;53.184;5.486;2022-12-07T10:04:24;4.65;;;1.30;;
53879;SDS011;39791;53.184;5.486;2022-12-07T10:09:18;9.73;;;1.70;;
53879;SDS011;39791;53.184;5.486;2022-12-07T10:11:57;8.82;;;1.55;;
53879;SDS011;39791;53.184;5.486;2022-12-07T10:14:38;11.75;;;1.98;;
53879;SDS011;39791;53.184;5.486;2022-12-07T10:17:25;5.15;;;1.27;;
53879;SDS011;39791;53.184;5.486;2022-12-07T10:20:02;10.45;;;2.22;;
53879;SDS011;39791;53.184;5.486;2022-12-07T10:22:36;9.90;;;2.22;;
53879;SDS011;39791;53.184;5.486;2022-12-07T10:25:07;17.30;;;2.70;;
53879;SDS011;39791;53.184;5.486;2022-12-07T10:27:42;10.77;;;1.95;;
53879;SDS011;39791;53.184;5.486;2022-12-07T10:30:07;8.77;;;2.05;;
53879;SDS011;39791;53.184;5.486;2022-12-07T10:32:38;12.05;;;2.15;;
53879;SDS011;39791;53.184;5.486;2022-12-07T10:35:26;13.68;;;2.65;;
53879;SDS011;39791;53.184;5.486;2022-12-07T10:37:52;16.02;;;2.13;;
53879;SDS011;39791;53.184;5.486;2022-12-07T10:40:35;11.00;;;2.10;;
53879;SDS011;39791;53.184;5.486;2022-12-07T10:48:41;15.15;;;2.95;;
53879;SDS011;39791;53.184;5.486;2022-12-07T10:51:43;10.18;;;2.15;;
53879;SDS011;39791;53.184;5.486;2022-12-07T10:54:27;15.15;;;2.20;;
53879;SDS011;39791;53.184;5.486;2022-12-07T10:57:17;11.30;;;2.25;;
53879;SDS011;39791;53.184;5.486;2022-12-07T11:02:35;15.85;;;2.50;;
53879;SDS011;39791;53.184;5.486;2022-12-07T11:05:21;15.18;;;1.67;;
53879;SDS011;39791;53.184;5.486;2022-12-07T11:08:11;15.75;;;2.40;;
53879;SDS011;39791;53.184;5.486;2022-12-07T11:16:56;6.82;;;1.80;;
53879;SDS011;39791;53.184;5.486;2022-12-07T11:19:40;12.07;;;1.90;;
53879;SDS011;39791;53.184;5.486;2022-12-07T11:25:22;12.57;;;2.20;;
53879;SDS011;39791;53.184;5.486;2022-12-07T11:30:33;14.27;;;2.05;;
53879;SDS011;39791;53.184;5.486;2022-12-07T11:33:27;13.82;;;2.20;;
53879;SDS011;39791;53.184;5.486;2022-12-07T11:41:08;10.23;;;1.85;;
53879;SDS011;39791;53.184;5.486;2022-12-07T11:46:47;11.50;;;2.35;;
53879;SDS011;39791;53.184;5.486;2022-12-07T11:49:47;10.25;;;1.70;;
53879;SDS011;39791;53.184;5.486;2022-12-07T11:52:27;11.50;;;2.22;;
53879;SDS011;39791;53.184;5.486;2022-12-07T11:54:58;12.55;;;2.22;;
53879;SDS011;39791;53.184;5.486;2022-12-07T11:57:28;12.88;;;3.03;;
53879;SDS011;39791;53.184;5.486;2022-12-07T12:00:03;11.75;;;1.92;;
53879;SDS011;39791;53.184;5.486;2022-12-07T12:02:38;11.95;;;1.98;;
53879;SDS011;39791;53.184;5.486;2022-12-07T12:05:33;8.83;;;2.23;;
53879;SDS011;39791;53.184;5.486;2022-12-07T12:16:14;11.32;;;1.77;;
53879;SDS011;39791;53.184;5.486;2022-12-07T12:21:46;10.20;;;1.85;;
53879;SDS011;39791;53.184;5.486;2022-12-07T12:24:16;7.88;;;1.60;;
53879;SDS011;39791;53.184;5.486;2022-12-07T12:26:49;8.02;;;1.55;;
53879;SDS011;39791;53.184;5.486;2022-12-07T12:29:34;6.47;;;1.80;;
53879;SDS011;39791;53.184;5.486;2022-12-07T12:40:40;13.27;;;2.00;;
53879;SDS011;39791;53.184;5.486;2022-12-07T12:42:50;13.80;;;1.98;;
53879;SDS011;39791;53.184;5.486;2022-12-07T12:45:27;6.55;;;1.48;;
53879;SDS011;39791;53.184;5.486;2022-12-07T12:50:37;11.77;;;1.83;;
53879;SDS011;39791;53.184;5.486;2022-12-07T12:53:05;11.57;;;1.73;;
53879;SDS011;39791;53.184;5.486;2022-12-07T12:58:35;8.80;;;1.77;;
53879;SDS011;39791;53.184;5.486;2022-12-07T13:01:31;8.82;;;1.95;;
53879;SDS011;39791;53.184;5.486;2022-12-07T13:03:54;8.35;;;1.58;;
53879;SDS011;39791;53.184;5.486;2022-12-07T13:08:49;7.75;;;1.48;;
53879;SDS011;39791;53.184;5.486;2022-12-07T13:11:24;10.07;;;2.00;;
53879;SDS011;39791;53.184;5.486;2022-12-07T13:17:02;7.80;;;1.50;;
53879;SDS011;39791;53.184;5.486;2022-12-07T13:25:03;9.65;;;1.77;;
53879;SDS011;39791;53.184;5.486;2022-12-07T13:27:37;6.43;;;1.40;;
53879;SDS011;39791;53.184;5.486;2022-12-07T13:30:19;9.13;;;1.20;;
53879;SDS011;39791;53.184;5.486;2022-12-07T13:32:53;6.75;;;1.00;;
53879;SDS011;39791;53.184;5.486;2022-12-07T13:35:27;7.05;;;1.27;;
53879;SDS011;39791;53.184;5.486;2022-12-07T13:37:52;5.70;;;1.40;;
53879;SDS011;39791;53.184;5.486;2022-12-07T13:40:19;6.63;;;1.55;;
53879;SDS011;39791;53.184;5.486;2022-12-07T13:42:46;12.40;;;1.77;;
53879;SDS011;39791;53.184;5.486;2022-12-07T13:45:22;9.77;;;1.65;;
53879;SDS011;39791;53.184;5.486;2022-12-07T13:48:14;7.13;;;1.67;;
53879;SDS011;39791;53.184;5.486;2022-12-07T13:50:59;6.63;;;1.47;;
53879;SDS011;39791;53.184;5.486;2022-12-07T13:53:26;8.13;;;1.85;;
53879;SDS011;39791;53.184;5.486;2022-12-07T13:55:55;7.05;;;1.50;;
53879;SDS011;39791;53.184;5.486;2022-12-07T13:58:25;10.70;;;1.80;;
53879;SDS011;39791;53.184;5.486;2022-12-07T14:00:54;6.80;;;1.33;;
53879;SDS011;39791;53.184;5.486;2022-12-07T14:06:04;7.75;;;1.60;;
53879;SDS011;39791;53.184;5.486;2022-12-07T14:08:39;7.20;;;1.30;;
53879;SDS011;39791;53.184;5.486;2022-12-07T14:11:05;13.43;;;1.63;;
53879;SDS011;39791;53.184;5.486;2022-12-07T14:13:34;5.13;;;1.20;;
53879;SDS011;39791;53.184;5.486;2022-12-07T14:16:03;4.15;;;1.10;;
53879;SDS011;39791;53.184;5.486;2022-12-07T14:18:47;5.97;;;1.38;;
53879;SDS011;39791;53.184;5.486;2022-12-07T14:23:38;10.30;;;1.70;;
53879;SDS011;39791;53.184;5.486;2022-12-07T14:26:06;9.02;;;2.42;;
53879;SDS011;39791;53.184;5.486;2022-12-07T14:28:36;9.07;;;1.88;;
53879;SDS011;39791;53.184;5.486;2022-12-07T14:31:12;8.23;;;2.15;;
53879;SDS011;39791;53.184;5.486;2022-12-07T14:33:40;9.82;;;2.10;;
53879;SDS011;39791;53.184;5.486;2022-12-07T14:36:08;9.43;;;2.38;;
53879;SDS011;39791;53.184;5.486;2022-12-07T14:38:35;6.22;;;2.10;;
53879;SDS011;39791;53.184;5.486;2022-12-07T14:41:01;10.15;;;2.20;;
53879;SDS011;39791;53.184;5.486;2022-12-07T14:43:47;13.20;;;2.63;;
53879;SDS011;39791;53.184;5.486;2022-12-07T14:46:13;6.38;;;2.20;;
53879;SDS011;39791;53.184;5.486;2022-12-07T14:48:38;11.88;;;2.63;;
53879;SDS011;39791;53.184;5.486;2022-12-07T14:51:04;11.43;;;2.50;;
53879;SDS011;39791;53.184;5.486;2022-12-07T14:53:31;8.98;;;2.13;;
53879;SDS011;39791;53.184;5.486;2022-12-07T14:56:00;11.70;;;2.38;;
53879;SDS011;39791;53.184;5.486;2022-12-07T14:58:26;9.27;;;2.13;;
53879;SDS011;39791;53.184;5.486;2022-12-07T15:00:52;11.57;;;2.35;;
53879;SDS011;39791;53.184;5.486;2022-12-07T15:03:17;9.88;;;2.20;;
53879;SDS011;39791;53.184;5.486;2022-12-07T15:05:43;10.73;;;2.20;;
53879;SDS011;39791;53.184;5.486;2022-12-07T15:08:10;11.18;;;2.03;;
53879;SDS011;39791;53.184;5.486;2022-12-07T15:10:37;21.88;;;2.72;;
53879;SDS011;39791;53.184;5.486;2022-12-07T15:13:04;13.02;;;2.20;;
53879;SDS011;39791;53.184;5.486;2022-12-07T15:15:49;17.02;;;2.42;;
53879;SDS011;39791;53.184;5.486;2022-12-07T15:18:16;14.02;;;2.55;;
53879;SDS011;39791;53.184;5.486;2022-12-07T15:20:42;12.63;;;2.50;;
53879;SDS011;39791;53.184;5.486;2022-12-07T15:23:09;12.95;;;2.80;;
53879;SDS011;39791;53.184;5.486;2022-12-07T15:25:35;16.23;;;2.40;;
53879;SDS011;39791;53.184;5.486;2022-12-07T15:28:01;11.70;;;2.08;;
53879;SDS011;39791;53.184;5.486;2022-12-07T15:30:27;12.57;;;2.50;;
53879;SDS011;39791;53.184;5.486;2022-12-07T15:32:53;13.70;;;2.10;;
53879;SDS011;39791;53.184;5.486;2022-12-07T15:35:19;9.85;;;2.13;;
53879;SDS011;39791;53.184;5.486;2022-12-07T15:37:46;14.10;;;2.20;;
53879;SDS011;39791;53.184;5.486;2022-12-07T15:40:12;7.40;;;1.88;;
53879;SDS011;39791;53.184;5.486;2022-12-07T15:42:38;10.63;;;1.73;;
53879;SDS011;39791;53.184;5.486;2022-12-07T15:45:04;8.25;;;1.83;;
53879;SDS011;39791;53.184;5.486;2022-12-07T15:47:32;5.90;;;1.63;;
53879;SDS011;39791;53.184;5.486;2022-12-07T15:50:03;9.38;;;1.70;;
53879;SDS011;39791;53.184;5.486;2022-12-07T15:52:30;8.38;;;1.77;;
53879;SDS011;39791;53.184;5.486;2022-12-07T15:54:56;10.75;;;1.83;;
53879;SDS011;39791;53.184;5.486;2022-12-07T15:57:22;13.15;;;2.50;;
53879;SDS011;39791;53.184;5.486;2022-12-07T15:59:48;11.48;;;2.20;;
53879;SDS011;39791;53.184;5.486;2022-12-07T16:02:13;11.07;;;2.35;;
53879;SDS011;39791;53.184;5.486;2022-12-07T16:04:39;8.20;;;1.70;;
53879;SDS011;39791;53.184;5.486;2022-12-07T16:07:04;11.05;;;1.95;;
53879;SDS011;39791;53.184;5.486;2022-12-07T16:09:30;15.27;;;1.85;;
53879;SDS011;39791;53.184;5.486;2022-12-07T16:11:56;9.38;;;1.88;;
53879;SDS011;39791;53.184;5.486;2022-12-07T16:14:22;9.63;;;2.05;;
53879;SDS011;39791;53.184;5.486;2022-12-07T16:16:47;15.55;;;2.10;;
53879;SDS011;39791;53.184;5.486;2022-12-07T16:19:13;15.45;;;2.28;;
53879;SDS011;39791;53.184;5.486;2022-12-07T16:21:39;12.73;;;2.80;;
53879;SDS011;39791;53.184;5.486;2022-12-07T16:24:05;12.93;;;2.20;;
53879;SDS011;39791;53.184;5.486;2022-12-07T16:26:32;13.23;;;2.30;;
53879;SDS011;39791;53.184;5.486;2022-12-07T16:28:58;19.05;;;3.30;;
53879;SDS011;39791;53.184;5.486;2022-12-07T16:31:24;16.00;;;2.53;;